sensor_id;sensor_type;location;lat;lon;timestamp;pressure;altitude;pressure_sealevel;temperature;humidity
68656;BME280;55638;51.122;13.606;2023-01-30T00:00:13;100285.44;;;-0.97;52.38
68656;BME280;55638;51.122;13.606;2023-01-30T00:01:46;100286.31;;;-0.97;52.36
68656;BME280;55638;51.122;13.606;2023-01-30T00:03:18;100288.91;;;-0.95;52.35
68656;BME280;55638;51.122;13.606;2023-01-30T00:04:50;100281.81;;;-0.95;52.23
68656;BME280;55638;51.122;13.606;2023-01-30T00:06:22;100278.22;;;-0.92;52.30
68656;BME280;55638;51.122;13.606;2023-01-30T00:07:54;100286.09;;;-0.91;52.23
68656;BME280;55638;51.122;13.606;2023-01-30T00:09:26;100272.00;;;-0.91;52.20
68656;BME280;55638;51.122;13.606;2023-01-30T00:11:03;100281.72;;;-0.92;52.05
68656;BME280;55638;51.122;13.606;2023-01-30T00:12:35;100273.75;;;-0.90;52.16
68656;BME280;55638;51.122;13.606;2023-01-30T00:14:07;100271.94;;;-0.90;52.26
68656;BME280;55638;51.122;13.606;2023-01-30T00:15:39;100256.06;;;-0.90;52.13
68656;BME280;55638;51.122;13.606;2023-01-30T00:17:11;100257.78;;;-0.89;52.37
68656;BME280;55638;51.122;13.606;2023-01-30T00:18:43;100261.25;;;-0.87;52.25
68656;BME280;55638;51.122;13.606;2023-01-30T00:20:15;100263.84;;;-0.85;52.16
68656;BME280;55638;51.122;13.606;2023-01-30T00:21:47;100251.47;;;-0.85;52.24
68656;BME280;55638;51.122;13.606;2023-01-30T00:23:19;100248.72;;;-0.82;52.26
68656;BME280;55638;51.122;13.606;2023-01-30T00:24:51;100246.06;;;-0.82;52.10
68656;BME280;55638;51.122;13.606;2023-01-30T00:26:23;100245.22;;;-0.82;52.15
68656;BME280;55638;51.122;13.606;2023-01-30T00:27:55;100251.34;;;-0.82;52.16
68656;BME280;55638;51.122;13.606;2023-01-30T00:29:27;100236.31;;;-0.80;52.02
68656;BME280;55638;51.122;13.606;2023-01-30T00:30:59;100231.00;;;-0.80;51.89
68656;BME280;55638;51.122;13.606;2023-01-30T00:32:31;100235.44;;;-0.80;52.14
68656;BME280;55638;51.122;13.606;2023-01-30T00:34:02;100229.19;;;-0.78;51.89
68656;BME280;55638;51.122;13.606;2023-01-30T00:35:35;100237.91;;;-0.75;52.21
68656;BME280;55638;51.122;13.606;2023-01-30T00:37:06;100208.91;;;-0.79;51.84
68656;BME280;55638;51.122;13.606;2023-01-30T00:38:39;100205.34;;;-0.78;51.85
68656;BME280;55638;51.122;13.606;2023-01-30T00:40:11;100203.56;;;-0.77;51.98
68656;BME280;55638;51.122;13.606;2023-01-30T00:41:42;100200.84;;;-0.75;51.74
68656;BME280;55638;51.122;13.606;2023-01-30T00:43:33;100169.94;;;-0.75;51.65
68656;BME280;55638;51.122;13.606;2023-01-30T00:45:24;100180.59;;;-0.76;51.67
68656;BME280;55638;51.122;13.606;2023-01-30T00:47:14;100170.94;;;-0.78;51.64
68656;BME280;55638;51.122;13.606;2023-01-30T00:48:46;100155.97;;;-0.79;51.52
68656;BME280;55638;51.122;13.606;2023-01-30T00:50:18;100166.50;;;-0.77;51.57
68656;BME280;55638;51.122;13.606;2023-01-30T00:51:50;100161.22;;;-0.77;51.75
68656;BME280;55638;51.122;13.606;2023-01-30T00:53:22;100154.19;;;-0.78;51.77
68656;BME280;55638;51.122;13.606;2023-01-30T00:54:54;100162.09;;;-0.76;51.68
68656;BME280;55638;51.122;13.606;2023-01-30T00:56:26;100151.50;;;-0.76;51.71
68656;BME280;55638;51.122;13.606;2023-01-30T00:57:58;100175.34;;;-0.78;51.91
68656;BME280;55638;51.122;13.606;2023-01-30T00:59:30;100172.66;;;-0.76;51.83
68656;BME280;55638;51.122;13.606;2023-01-30T01:01:02;100181.41;;;-0.74;51.71
68656;BME280;55638;51.122;13.606;2023-01-30T01:02:34;100169.94;;;-0.75;51.43
68656;BME280;55638;51.122;13.606;2023-01-30T01:04:06;100175.25;;;-0.75;51.67
68656;BME280;55638;51.122;13.606;2023-01-30T01:05:39;100174.28;;;-0.72;51.84
68656;BME280;55638;51.122;13.606;2023-01-30T01:07:12;100177.00;;;-0.74;51.61
68656;BME280;55638;51.122;13.606;2023-01-30T01:08:44;100169.91;;;-0.73;51.64
68656;BME280;55638;51.122;13.606;2023-01-30T01:10:16;100168.97;;;-0.72;51.61
68656;BME280;55638;51.122;13.606;2023-01-30T01:11:48;100170.69;;;-0.71;51.79
68656;BME280;55638;51.122;13.606;2023-01-30T01:13:20;100168.03;;;-0.71;51.82
68656;BME280;55638;51.122;13.606;2023-01-30T01:14:52;100161.84;;;-0.70;51.71
68656;BME280;55638;51.122;13.606;2023-01-30T01:16:25;100152.13;;;-0.70;51.93
68656;BME280;55638;51.122;13.606;2023-01-30T01:17:58;100154.69;;;-0.68;51.77
68656;BME280;55638;51.122;13.606;2023-01-30T01:19:30;100137.09;;;-0.69;51.88
68656;BME280;55638;51.122;13.606;2023-01-30T01:21:03;100145.00;;;-0.68;51.81
68656;BME280;55638;51.122;13.606;2023-01-30T01:22:35;100138.81;;;-0.68;51.87
68656;BME280;55638;51.122;13.606;2023-01-30T01:24:11;100139.72;;;-0.68;51.88
68656;BME280;55638;51.122;13.606;2023-01-30T01:25:44;100129.97;;;-0.67;51.82
68656;BME280;55638;51.122;13.606;2023-01-30T01:27:15;100119.31;;;-0.66;51.95
68656;BME280;55638;51.122;13.606;2023-01-30T01:28:47;100105.22;;;-0.66;51.94
68656;BME280;55638;51.122;13.606;2023-01-30T01:30:19;100103.50;;;-0.67;51.75
68656;BME280;55638;51.122;13.606;2023-01-30T01:31:51;100101.72;;;-0.67;51.76
68656;BME280;55638;51.122;13.606;2023-01-30T01:33:26;100104.38;;;-0.67;51.75
68656;BME280;55638;51.122;13.606;2023-01-30T01:34:58;100100.84;;;-0.67;51.94
68656;BME280;55638;51.122;13.606;2023-01-30T01:36:30;100100.84;;;-0.67;52.02
68656;BME280;55638;51.122;13.606;2023-01-30T01:38:22;100086.75;;;-0.68;51.92
68656;BME280;55638;51.122;13.606;2023-01-30T01:39:55;100083.84;;;-0.62;51.84
68656;BME280;55638;51.122;13.606;2023-01-30T01:41:45;100079.56;;;-0.64;52.08
68656;BME280;55638;51.122;13.606;2023-01-30T01:43:20;100090.19;;;-0.66;51.86
68656;BME280;55638;51.122;13.606;2023-01-30T01:45:03;100077.03;;;-0.67;52.01
68656;BME280;55638;51.122;13.606;2023-01-30T01:46:37;100079.59;;;-0.66;52.08
68656;BME280;55638;51.122;13.606;2023-01-30T01:48:19;100069.09;;;-0.67;52.20
68656;BME280;55638;51.122;13.606;2023-01-30T01:49:53;100057.44;;;-0.63;52.12
68656;BME280;55638;51.122;13.606;2023-01-30T01:51:28;100054.00;;;-0.65;52.33
68656;BME280;55638;51.122;13.606;2023-01-30T01:53:01;100040.72;;;-0.64;52.08
68656;BME280;55638;51.122;13.606;2023-01-30T01:54:47;100035.41;;;-0.64;52.20
68656;BME280;55638;51.122;13.606;2023-01-30T01:56:20;100029.16;;;-0.61;52.07
68656;BME280;55638;51.122;13.606;2023-01-30T01:58:01;100011.50;;;-0.62;52.18
68656;BME280;55638;51.122;13.606;2023-01-30T01:59:44;100015.09;;;-0.63;52.12
68656;BME280;55638;51.122;13.606;2023-01-30T02:01:19;99992.94;;;-0.61;52.32
68656;BME280;55638;51.122;13.606;2023-01-30T02:03:02;99980.69;;;-0.63;52.22
68656;BME280;55638;51.122;13.606;2023-01-30T02:04:39;99990.47;;;-0.65;52.15
68656;BME280;55638;51.122;13.606;2023-01-30T02:06:32;99975.50;;;-0.66;52.22
68656;BME280;55638;51.122;13.606;2023-01-30T02:08:11;99984.38;;;-0.67;52.26
68656;BME280;55638;51.122;13.606;2023-01-30T02:09:44;99976.44;;;-0.67;52.39
68656;BME280;55638;51.122;13.606;2023-01-30T02:11:32;99982.75;;;-0.71;52.36
68656;BME280;55638;51.122;13.606;2023-01-30T02:13:08;99976.69;;;-0.73;52.56
68656;BME280;55638;51.122;13.606;2023-01-30T02:14:40;99989.00;;;-0.72;52.63
68656;BME280;55638;51.122;13.606;2023-01-30T02:16:12;99981.97;;;-0.73;52.71
68656;BME280;55638;51.122;13.606;2023-01-30T02:17:45;99976.69;;;-0.73;52.79
68656;BME280;55638;51.122;13.606;2023-01-30T02:19:33;99976.81;;;-0.76;52.78
68656;BME280;55638;51.122;13.606;2023-01-30T02:25:17;99961.06;;;-0.80;52.80
68656;BME280;55638;51.122;13.606;2023-01-30T02:30:54;99953.44;;;-0.87;53.00
68656;BME280;55638;51.122;13.606;2023-01-30T02:32:44;99960.34;;;-0.85;53.08
68656;BME280;55638;51.122;13.606;2023-01-30T02:38:37;99979.94;;;-0.89;53.23
68656;BME280;55638;51.122;13.606;2023-01-30T02:40:13;99988.69;;;-0.87;53.51
68656;BME280;55638;51.122;13.606;2023-01-30T02:42:04;99994.88;;;-0.88;53.43
68656;BME280;55638;51.122;13.606;2023-01-30T02:43:59;99979.91;;;-0.87;53.82
68656;BME280;55638;51.122;13.606;2023-01-30T02:48:00;99972.63;;;-0.82;53.69
68656;BME280;55638;51.122;13.606;2023-01-30T02:49:41;99955.75;;;-0.80;53.72
68656;BME280;55638;51.122;13.606;2023-01-30T02:51:22;99960.00;;;-0.75;53.92
68656;BME280;55638;51.122;13.606;2023-01-30T02:52:55;99944.81;;;-0.70;53.99
68656;BME280;55638;51.122;13.606;2023-01-30T02:54:28;99943.00;;;-0.70;54.06
68656;BME280;55638;51.122;13.606;2023-01-30T02:56:00;99940.16;;;-0.65;54.11
68656;BME280;55638;51.122;13.606;2023-01-30T02:57:32;99929.41;;;-0.61;54.07
68656;BME280;55638;51.122;13.606;2023-01-30T02:59:05;99924.84;;;-0.57;53.81
68656;BME280;55638;51.122;13.606;2023-01-30T03:00:52;99927.41;;;-0.56;54.03
68656;BME280;55638;51.122;13.606;2023-01-30T03:02:43;99915.84;;;-0.53;54.02
68656;BME280;55638;51.122;13.606;2023-01-30T03:04:30;99925.31;;;-0.47;53.89
68656;BME280;55638;51.122;13.606;2023-01-30T03:06:22;99920.75;;;-0.44;54.00
68656;BME280;55638;51.122;13.606;2023-01-30T03:08:09;99918.69;;;-0.37;53.87
68656;BME280;55638;51.122;13.606;2023-01-30T03:13:28;99909.50;;;-0.28;53.88
68656;BME280;55638;51.122;13.606;2023-01-30T03:15:27;99900.75;;;-0.31;53.97
68656;BME280;55638;51.122;13.606;2023-01-30T03:17:02;99892.53;;;-0.24;53.96
68656;BME280;55638;51.122;13.606;2023-01-30T03:18:36;99891.56;;;-0.22;54.01
68656;BME280;55638;51.122;13.606;2023-01-30T03:20:08;99884.34;;;-0.18;54.04
68656;BME280;55638;51.122;13.606;2023-01-30T03:21:41;99865.72;;;-0.17;54.08
68656;BME280;55638;51.122;13.606;2023-01-30T03:23:15;99868.31;;;-0.15;53.99
68656;BME280;55638;51.122;13.606;2023-01-30T03:24:48;99857.56;;;-0.12;54.24
68656;BME280;55638;51.122;13.606;2023-01-30T03:26:25;99851.25;;;-0.10;54.17
68656;BME280;55638;51.122;13.606;2023-01-30T03:28:01;99856.38;;;-0.05;54.12
68656;BME280;55638;51.122;13.606;2023-01-30T03:29:34;99854.56;;;-0.04;54.12
68656;BME280;55638;51.122;13.606;2023-01-30T03:31:06;99850.94;;;-0.02;53.94
68656;BME280;55638;51.122;13.606;2023-01-30T03:32:39;99842.84;;;0.01;54.06
68656;BME280;55638;51.122;13.606;2023-01-30T03:34:11;99832.16;;;0.03;54.09
68656;BME280;55638;51.122;13.606;2023-01-30T03:35:43;99833.91;;;0.04;53.82
68656;BME280;55638;51.122;13.606;2023-01-30T03:37:16;99830.22;;;0.06;53.94
68656;BME280;55638;51.122;13.606;2023-01-30T03:38:50;99814.31;;;0.06;53.76
68656;BME280;55638;51.122;13.606;2023-01-30T03:40:23;99823.13;;;0.07;53.94
68656;BME280;55638;51.122;13.606;2023-01-30T03:41:55;99820.47;;;0.07;53.76
68656;BME280;55638;51.122;13.606;2023-01-30T03:43:27;99815.19;;;0.07;53.87
68656;BME280;55638;51.122;13.606;2023-01-30T03:44:59;99810.75;;;0.07;53.83
68656;BME280;55638;51.122;13.606;2023-01-30T03:46:30;99815.94;;;0.10;53.79
68656;BME280;55638;51.122;13.606;2023-01-30T03:48:02;99815.19;;;0.07;53.61
68656;BME280;55638;51.122;13.606;2023-01-30T03:49:35;99816.91;;;0.08;54.05
68656;BME280;55638;51.122;13.606;2023-01-30T03:51:07;99815.13;;;0.08;53.97
68656;BME280;55638;51.122;13.606;2023-01-30T03:52:39;99823.94;;;0.09;53.96
68656;BME280;55638;51.122;13.606;2023-01-30T03:54:15;99821.28;;;0.09;54.07
68656;BME280;55638;51.122;13.606;2023-01-30T03:55:47;99821.22;;;0.10;54.30
68656;BME280;55638;51.122;13.606;2023-01-30T03:57:20;99834.34;;;0.13;54.20
68656;BME280;55638;51.122;13.606;2023-01-30T03:58:52;99841.25;;;0.16;54.32
68656;BME280;55638;51.122;13.606;2023-01-30T04:00:33;99837.69;;;0.17;54.42
68656;BME280;55638;51.122;13.606;2023-01-30T04:02:06;99841.84;;;0.23;54.51
68656;BME280;55638;51.122;13.606;2023-01-30T04:03:38;99825.78;;;0.26;54.26
68656;BME280;55638;51.122;13.606;2023-01-30T04:05:10;99813.34;;;0.28;54.40
68656;BME280;55638;51.122;13.606;2023-01-30T04:06:45;99816.63;;;0.33;54.42
68656;BME280;55638;51.122;13.606;2023-01-30T04:08:17;99805.81;;;0.37;54.20
68656;BME280;55638;51.122;13.606;2023-01-30T04:09:50;99793.34;;;0.39;54.40
68656;BME280;55638;51.122;13.606;2023-01-30T04:11:23;99789.53;;;0.45;54.32
68656;BME280;55638;51.122;13.606;2023-01-30T04:12:55;99792.13;;;0.47;54.24
68656;BME280;55638;51.122;13.606;2023-01-30T04:14:28;99787.53;;;0.50;54.12
68656;BME280;55638;51.122;13.606;2023-01-30T04:16:27;99781.13;;;0.54;54.17
68656;BME280;55638;51.122;13.606;2023-01-30T04:18:01;99780.97;;;0.57;54.25
68656;BME280;55638;51.122;13.606;2023-01-30T04:19:33;99774.59;;;0.61;54.11
68656;BME280;55638;51.122;13.606;2023-01-30T04:21:05;99767.41;;;0.63;54.02
68656;BME280;55638;51.122;13.606;2023-01-30T04:22:41;99759.31;;;0.67;54.13
68656;BME280;55638;51.122;13.606;2023-01-30T04:24:13;99753.16;;;0.66;54.12
68656;BME280;55638;51.122;13.606;2023-01-30T04:25:45;99757.38;;;0.70;53.95
68656;BME280;55638;51.122;13.606;2023-01-30T04:27:19;99759.06;;;0.71;53.90
68656;BME280;55638;51.122;13.606;2023-01-30T04:29:10;99742.94;;;0.76;53.80
68656;BME280;55638;51.122;13.606;2023-01-30T04:30:43;99764.94;;;0.78;53.82
68656;BME280;55638;51.122;13.606;2023-01-30T04:32:33;99752.47;;;0.80;53.83
68656;BME280;55638;51.122;13.606;2023-01-30T04:34:05;99747.94;;;0.82;54.00
68656;BME280;55638;51.122;13.606;2023-01-30T04:35:38;99748.66;;;0.85;53.89
68656;BME280;55638;51.122;13.606;2023-01-30T04:37:11;99742.41;;;0.86;53.90
68656;BME280;55638;51.122;13.606;2023-01-30T04:38:43;99739.66;;;0.88;53.98
68656;BME280;55638;51.122;13.606;2023-01-30T04:40:15;99737.88;;;0.89;53.89
68656;BME280;55638;51.122;13.606;2023-01-30T04:41:48;99735.94;;;0.92;53.86
68656;BME280;55638;51.122;13.606;2023-01-30T04:43:20;99730.50;;;0.95;53.97
68656;BME280;55638;51.122;13.606;2023-01-30T04:45:15;99721.59;;;0.96;54.01
68656;BME280;55638;51.122;13.606;2023-01-30T04:46:48;99723.13;;;1.00;54.22
68656;BME280;55638;51.122;13.606;2023-01-30T04:48:21;99721.28;;;1.02;54.26
68656;BME280;55638;51.122;13.606;2023-01-30T04:49:54;99725.59;;;1.05;53.97
68656;BME280;55638;51.122;13.606;2023-01-30T04:51:26;99717.38;;;1.09;54.04
68656;BME280;55638;51.122;13.606;2023-01-30T04:52:58;99720.03;;;1.09;54.03
68656;BME280;55638;51.122;13.606;2023-01-30T04:54:29;99716.25;;;1.14;54.00
68656;BME280;55638;51.122;13.606;2023-01-30T04:56:01;99701.97;;;1.16;54.00
68656;BME280;55638;51.122;13.606;2023-01-30T04:57:33;99707.97;;;1.20;53.92
68656;BME280;55638;51.122;13.606;2023-01-30T04:59:05;99687.59;;;1.20;54.09
68656;BME280;55638;51.122;13.606;2023-01-30T05:00:41;99695.34;;;1.25;54.03
68656;BME280;55638;51.122;13.606;2023-01-30T05:02:13;99694.31;;;1.27;54.03
68656;BME280;55638;51.122;13.606;2023-01-30T05:03:54;99700.47;;;1.28;53.98
68656;BME280;55638;51.122;13.606;2023-01-30T05:05:26;99687.81;;;1.33;54.02
68656;BME280;55638;51.122;13.606;2023-01-30T05:06:58;99673.44;;;1.37;53.94
68656;BME280;55638;51.122;13.606;2023-01-30T05:08:30;99666.56;;;1.33;53.83
68656;BME280;55638;51.122;13.606;2023-01-30T05:10:02;99660.00;;;1.40;53.93
68656;BME280;55638;51.122;13.606;2023-01-30T05:11:33;99657.25;;;1.42;53.92
68656;BME280;55638;51.122;13.606;2023-01-30T05:13:06;99656.13;;;1.46;53.87
68656;BME280;55638;51.122;13.606;2023-01-30T05:14:37;99642.78;;;1.47;53.85
68656;BME280;55638;51.122;13.606;2023-01-30T05:16:13;99632.91;;;1.49;53.60
68656;BME280;55638;51.122;13.606;2023-01-30T05:17:45;99634.66;;;1.50;53.80
68656;BME280;55638;51.122;13.606;2023-01-30T05:19:17;99631.84;;;1.53;53.44
68656;BME280;55638;51.122;13.606;2023-01-30T05:20:49;99604.22;;;1.56;53.62
68656;BME280;55638;51.122;13.606;2023-01-30T05:22:21;99620.00;;;1.59;53.68
68656;BME280;55638;51.122;13.606;2023-01-30T05:23:54;99612.97;;;1.58;53.65
68656;BME280;55638;51.122;13.606;2023-01-30T05:25:26;99608.50;;;1.59;53.48
68656;BME280;55638;51.122;13.606;2023-01-30T05:26:57;99597.72;;;1.62;53.39
68656;BME280;55638;51.122;13.606;2023-01-30T05:28:30;99601.16;;;1.64;53.63
68656;BME280;55638;51.122;13.606;2023-01-30T05:30:02;99612.63;;;1.64;53.39
68656;BME280;55638;51.122;13.606;2023-01-30T05:31:34;99597.53;;;1.65;53.49
68656;BME280;55638;51.122;13.606;2023-01-30T05:33:06;99616.94;;;1.67;53.45
68656;BME280;55638;51.122;13.606;2023-01-30T05:34:37;99597.38;;;1.68;53.47
68656;BME280;55638;51.122;13.606;2023-01-30T05:36:13;99597.53;;;1.65;52.73
68656;BME280;55638;51.122;13.606;2023-01-30T05:37:49;99603.47;;;1.70;53.17
68656;BME280;55638;51.122;13.606;2023-01-30T05:39:21;99591.88;;;1.71;53.36
68656;BME280;55638;51.122;13.606;2023-01-30T05:41:04;99583.25;;;1.67;53.42
68656;BME280;55638;51.122;13.606;2023-01-30T05:42:36;99597.28;;;1.69;53.48
68656;BME280;55638;51.122;13.606;2023-01-30T05:44:08;99601.56;;;1.72;53.30
68656;BME280;55638;51.122;13.606;2023-01-30T05:45:42;99564.38;;;1.72;53.25
68656;BME280;55638;51.122;13.606;2023-01-30T05:47:14;99567.03;;;1.72;53.40
68656;BME280;55638;51.122;13.606;2023-01-30T05:48:46;99574.94;;;1.73;53.22
68656;BME280;55638;51.122;13.606;2023-01-30T05:50:18;99574.94;;;1.73;53.46
68656;BME280;55638;51.122;13.606;2023-01-30T05:51:50;99583.66;;;1.75;53.46
68656;BME280;55638;51.122;13.606;2023-01-30T05:53:23;99573.13;;;1.74;53.32
68656;BME280;55638;51.122;13.606;2023-01-30T05:54:55;99565.16;;;1.74;53.39
68656;BME280;55638;51.122;13.606;2023-01-30T05:56:27;99572.34;;;1.72;53.57
68656;BME280;55638;51.122;13.606;2023-01-30T05:58:00;99576.72;;;1.73;53.38
68656;BME280;55638;51.122;13.606;2023-01-30T05:59:32;99584.69;;;1.73;53.58
68656;BME280;55638;51.122;13.606;2023-01-30T06:01:06;99572.16;;;1.75;53.44
68656;BME280;55638;51.122;13.606;2023-01-30T06:02:41;99566.84;;;1.75;53.38
68656;BME280;55638;51.122;13.606;2023-01-30T06:04:13;99552.72;;;1.74;53.65
68656;BME280;55638;51.122;13.606;2023-01-30T06:05:45;99560.63;;;1.76;53.59
68656;BME280;55638;51.122;13.606;2023-01-30T06:07:17;99562.38;;;1.75;53.69
68656;BME280;55638;51.122;13.606;2023-01-30T06:08:53;99555.31;;;1.76;53.60
68656;BME280;55638;51.122;13.606;2023-01-30T06:10:24;99556.16;;;1.76;53.85
68656;BME280;55638;51.122;13.606;2023-01-30T06:11:56;99558.81;;;1.76;53.93
68656;BME280;55638;51.122;13.606;2023-01-30T06:13:28;99554.25;;;1.78;53.70
68656;BME280;55638;51.122;13.606;2023-01-30T06:15:00;99559.50;;;1.80;53.92
68656;BME280;55638;51.122;13.606;2023-01-30T06:16:32;99563.94;;;1.79;53.73
68656;BME280;55638;51.122;13.606;2023-01-30T06:18:03;99553.16;;;1.83;53.76
68656;BME280;55638;51.122;13.606;2023-01-30T06:19:35;99541.38;;;1.87;53.69
68656;BME280;55638;51.122;13.606;2023-01-30T06:21:08;99550.22;;;1.87;53.85
68656;BME280;55638;51.122;13.606;2023-01-30T06:22:40;99541.28;;;1.88;53.74
68656;BME280;55638;51.122;13.606;2023-01-30T06:24:11;99551.91;;;1.88;53.76
68656;BME280;55638;51.122;13.606;2023-01-30T06:25:47;99553.66;;;1.89;53.59
68656;BME280;55638;51.122;13.606;2023-01-30T06:27:19;99558.78;;;1.92;53.88
68656;BME280;55638;51.122;13.606;2023-01-30T06:28:51;99556.88;;;1.94;53.95
68656;BME280;55638;51.122;13.606;2023-01-30T06:30:22;99545.22;;;1.97;53.77
68656;BME280;55638;51.122;13.606;2023-01-30T06:31:54;99541.72;;;1.96;53.77
68656;BME280;55638;51.122;13.606;2023-01-30T06:33:26;99552.22;;;1.98;53.96
68656;BME280;55638;51.122;13.606;2023-01-30T06:34:58;99550.34;;;2.00;53.93
68656;BME280;55638;51.122;13.606;2023-01-30T06:36:30;99560.88;;;2.01;54.02
68656;BME280;55638;51.122;13.606;2023-01-30T06:38:02;99552.91;;;2.01;54.02
68656;BME280;55638;51.122;13.606;2023-01-30T06:39:34;99547.41;;;2.05;54.01
68656;BME280;55638;51.122;13.606;2023-01-30T06:41:06;99560.72;;;2.05;54.16
68656;BME280;55638;51.122;13.606;2023-01-30T06:42:42;99560.53;;;2.08;54.04
68656;BME280;55638;51.122;13.606;2023-01-30T06:44:14;99564.94;;;2.09;54.18
68656;BME280;55638;51.122;13.606;2023-01-30T06:45:46;99561.31;;;2.10;54.31
68656;BME280;55638;51.122;13.606;2023-01-30T06:47:18;99564.81;;;2.10;54.42
68656;BME280;55638;51.122;13.606;2023-01-30T06:48:49;99562.16;;;2.10;54.47
68656;BME280;55638;51.122;13.606;2023-01-30T06:50:26;99575.38;;;2.12;54.58
68656;BME280;55638;51.122;13.606;2023-01-30T06:51:58;99578.78;;;2.14;54.43
68656;BME280;55638;51.122;13.606;2023-01-30T06:53:30;99569.00;;;2.14;54.49
68656;BME280;55638;51.122;13.606;2023-01-30T06:55:02;99574.31;;;2.14;54.54
68656;BME280;55638;51.122;13.606;2023-01-30T06:56:34;99562.66;;;2.17;54.71
68656;BME280;55638;51.122;13.606;2023-01-30T06:58:11;99569.00;;;2.14;54.98
68656;BME280;55638;51.122;13.606;2023-01-30T06:59:43;99563.78;;;2.13;54.70
68656;BME280;55638;51.122;13.606;2023-01-30T07:01:15;99568.31;;;2.11;55.13
68656;BME280;55638;51.122;13.606;2023-01-30T07:02:46;99580.69;;;2.12;55.06
68656;BME280;55638;51.122;13.606;2023-01-30T07:04:21;99556.94;;;2.09;55.17
68656;BME280;55638;51.122;13.606;2023-01-30T07:05:52;99560.63;;;2.06;55.03
68656;BME280;55638;51.122;13.606;2023-01-30T07:07:24;99537.63;;;2.05;55.18
68656;BME280;55638;51.122;13.606;2023-01-30T07:08:56;99556.44;;;2.02;55.10
68656;BME280;55638;51.122;13.606;2023-01-30T07:10:29;99554.81;;;1.99;55.54
68656;BME280;55638;51.122;13.606;2023-01-30T07:12:02;99549.50;;;1.99;55.45
68656;BME280;55638;51.122;13.606;2023-01-30T07:13:34;99547.88;;;1.97;55.39
68656;BME280;55638;51.122;13.606;2023-01-30T07:15:07;99554.81;;;1.99;55.36
68656;BME280;55638;51.122;13.606;2023-01-30T07:16:39;99550.53;;;1.97;55.56
68656;BME280;55638;51.122;13.606;2023-01-30T07:18:11;99551.50;;;1.96;55.68
68656;BME280;55638;51.122;13.606;2023-01-30T07:19:43;99536.38;;;1.96;55.70
68656;BME280;55638;51.122;13.606;2023-01-30T07:21:16;99535.53;;;1.96;56.22
68656;BME280;55638;51.122;13.606;2023-01-30T07:22:53;99537.25;;;1.97;56.02
68656;BME280;55638;51.122;13.606;2023-01-30T07:24:25;99547.88;;;1.97;56.23
68656;BME280;55638;51.122;13.606;2023-01-30T07:25:57;99543.22;;;2.00;56.01
68656;BME280;55638;51.122;13.606;2023-01-30T07:27:29;99533.44;;;2.01;56.21
68656;BME280;55638;51.122;13.606;2023-01-30T07:29:00;99543.84;;;2.06;56.13
68656;BME280;55638;51.122;13.606;2023-01-30T07:30:33;99550.84;;;2.07;56.09
68656;BME280;55638;51.122;13.606;2023-01-30T07:32:13;99540.13;;;2.08;56.28
68656;BME280;55638;51.122;13.606;2023-01-30T07:33:45;99535.41;;;2.13;56.07
68656;BME280;55638;51.122;13.606;2023-01-30T07:35:17;99536.00;;;2.18;56.08
68656;BME280;55638;51.122;13.606;2023-01-30T07:36:49;99537.59;;;2.21;56.13
68656;BME280;55638;51.122;13.606;2023-01-30T07:38:21;99529.63;;;2.21;56.17
68656;BME280;55638;51.122;13.606;2023-01-30T07:39:53;99533.06;;;2.23;56.14
68656;BME280;55638;51.122;13.606;2023-01-30T07:41:25;99521.38;;;2.25;55.98
68656;BME280;55638;51.122;13.606;2023-01-30T07:43:03;99528.31;;;2.28;56.11
68656;BME280;55638;51.122;13.606;2023-01-30T07:44:35;99528.88;;;2.33;55.97
68656;BME280;55638;51.122;13.606;2023-01-30T07:46:07;99533.25;;;2.34;56.10
68656;BME280;55638;51.122;13.606;2023-01-30T07:47:39;99533.06;;;2.37;56.02
68656;BME280;55638;51.122;13.606;2023-01-30T07:49:11;99527.56;;;2.40;55.81
68656;BME280;55638;51.122;13.606;2023-01-30T07:50:43;99532.81;;;2.42;55.86
68656;BME280;55638;51.122;13.606;2023-01-30T07:52:15;99528.22;;;2.44;55.82
68656;BME280;55638;51.122;13.606;2023-01-30T07:53:50;99532.63;;;2.45;55.97
68656;BME280;55638;51.122;13.606;2023-01-30T07:55:22;99523.63;;;2.47;55.83
68656;BME280;55638;51.122;13.606;2023-01-30T07:56:54;99510.19;;;2.49;55.96
68656;BME280;55638;51.122;13.606;2023-01-30T07:58:25;99507.34;;;2.52;55.70
68656;BME280;55638;51.122;13.606;2023-01-30T07:59:59;99528.53;;;2.54;55.71
68656;BME280;55638;51.122;13.606;2023-01-30T08:01:31;99529.50;;;2.53;55.87
68656;BME280;55638;51.122;13.606;2023-01-30T08:03:03;99527.59;;;2.55;55.73
68656;BME280;55638;51.122;13.606;2023-01-30T08:04:35;99506.22;;;2.56;55.74
68656;BME280;55638;51.122;13.606;2023-01-30T08:06:07;99527.41;;;2.58;55.87
68656;BME280;55638;51.122;13.606;2023-01-30T08:07:39;99528.16;;;2.60;55.76
68656;BME280;55638;51.122;13.606;2023-01-30T08:09:11;99531.59;;;2.62;55.87
68656;BME280;55638;51.122;13.606;2023-01-30T08:10:43;99504.88;;;2.63;55.88
68656;BME280;55638;51.122;13.606;2023-01-30T08:12:14;99512.78;;;2.65;55.89
68656;BME280;55638;51.122;13.606;2023-01-30T08:13:46;99539.41;;;2.65;55.79
68656;BME280;55638;51.122;13.606;2023-01-30T08:15:18;99525.06;;;2.67;55.51
68656;BME280;55638;51.122;13.606;2023-01-30T08:16:55;99525.13;;;2.66;55.64
68656;BME280;55638;51.122;13.606;2023-01-30T08:18:28;99526.84;;;2.67;55.71
68656;BME280;55638;51.122;13.606;2023-01-30T08:20:00;99528.75;;;2.65;55.76
68656;BME280;55638;51.122;13.606;2023-01-30T08:21:31;99520.78;;;2.65;55.69
68656;BME280;55638;51.122;13.606;2023-01-30T08:23:03;99535.09;;;2.62;55.79
68656;BME280;55638;51.122;13.606;2023-01-30T08:24:35;99523.69;;;2.60;55.83
68656;BME280;55638;51.122;13.606;2023-01-30T08:26:07;99525.69;;;2.57;55.85
68656;BME280;55638;51.122;13.606;2023-01-30T08:27:39;99524.75;;;2.58;55.89
68656;BME280;55638;51.122;13.606;2023-01-30T08:29:11;99518.78;;;2.54;56.00
68656;BME280;55638;51.122;13.606;2023-01-30T08:30:42;99533.00;;;2.53;55.90
68656;BME280;55638;51.122;13.606;2023-01-30T08:32:17;99523.41;;;2.50;56.10